Terminal Aerodrome Forecast
Issued by NWS Dodge City, KS

Home | Current Version | Previous Version | Graphics & Text | Print | Product List | Glossary Off
Versions: 1 2 3 4 5 6 7 8 9 10 11 12 13 14 15 16 17

000
FTUS43 KDDC 231737
TAFDDC
TAF
KDDC 231737Z 2318/2418 13005KT P6SM FEW250
     FM232000 15005KT P6SM FEW130 PROB30 2412/2417 4SM -SHRA OVC025
     FM241700 34009KT P6SM BKN040 PROB30 2417/2418 4SM -SHRA OVC025=

USA.gov is the U.S. government's official web portal to all federal, state and local government web resources and services.